Time,TemperatureF,DewpointF,PressureIn,WindDirection,WindDirectionDegrees,WindSpeedMPH,WindSpeedGustMPH,Humidity,HourlyPrecipIn,Conditions,Clouds,dailyrainin,SoftwareType,DateUTC
2013-03-07 00:09:00,50.5,-99.9,30.09,WNW,292,2.5,2.9,16,0.00,,CLR,0.00,VWS V14.01,2013-03-07 07:09:00,
2013-03-07 00:19:00,50.4,-99.9,30.09,WNW,292,4.7,5.4,21,0.00,,CLR,0.00,VWS V14.01,2013-03-07 07:19:00,
2013-03-07 00:30:00,50.4,-99.9,30.09,SSW,202,2.5,4.7,23,0.00,,CLR,0.00,VWS V14.01,2013-03-07 07:30:00,
2013-03-07 00:39:00,50.7,-99.9,30.09,WNW,292,2.2,5.4,28,0.00,,CLR,0.00,VWS V14.01,2013-03-07 07:39:00,
2013-03-07 00:49:00,50.9,-99.9,30.09,SSW,202,6.5,6.5,29,0.00,,CLR,0.00,VWS V14.01,2013-03-07 07:49:00,
2013-03-07 00:59:00,51.1,-99.9,30.09,NNW,338,4.3,6.5,29,0.00,,CLR,0.00,VWS V14.01,2013-03-07 07:59:00,
2013-03-07 01:09:00,51.8,-99.9,30.09,SSE,158,1.6,6.3,29,0.00,,CLR,0.00,VWS V14.01,2013-03-07 08:09:00,
2013-03-07 01:19:00,51.1,-99.9,30.09,SSW,202,2.5,6.0,29,0.00,,CLR,0.00,VWS V14.01,2013-03-07 08:19:00,
2013-03-07 01:29:00,51.4,-99.9,30.09,West,270,3.4,4.0,30,0.00,,CLR,0.00,VWS V14.01,2013-03-07 08:29:00,
2013-03-07 01:39:00,52.2,-99.9,30.09,SSE,158,6.3,6.3,30,0.00,,CLR,0.00,VWS V14.01,2013-03-07 08:39:00,
2013-03-07 01:49:00,53.1,-99.9,30.09,WNW,292,4.0,6.3,29,0.00,,CLR,0.00,VWS V14.01,2013-03-07 08:49:00,
2013-03-07 01:59:00,53.1,-99.9,30.09,West,270,2.5,4.5,29,0.00,,CLR,0.00,VWS V14.01,2013-03-07 08:59:00,
2013-03-07 02:10:00,51.8,-99.9,30.09,ESE,112,0.9,2.9,29,0.00,,CLR,0.00,VWS V14.01,2013-03-07 09:10:00,
2013-03-07 02:19:00,50.2,-99.9,30.09,SSW,202,4.3,4.3,30,0.00,,CLR,0.00,VWS V14.01,2013-03-07 09:19:00,
2013-03-07 02:39:00,49.1,-99.9,30.09,West,270,3.6,3.6,31,0.00,,CLR,0.00,VWS V14.01,2013-03-07 09:39:00,
2013-03-07 02:49:00,48.2,-99.9,30.09,NW,315,2.2,4.3,32,0.00,,CLR,0.00,VWS V14.01,2013-03-07 09:49:00,
2013-03-07 03:00:00,48.7,-99.9,30.09,SSW,202,2.7,4.0,34,0.00,,CLR,0.00,VWS V14.01,2013-03-07 10:00:00,
2013-03-07 03:10:00,49.5,-99.9,30.06,South,180,5.8,6.3,34,0.00,,CLR,0.00,VWS V14.01,2013-03-07 10:10:00,
2013-03-07 03:19:00,50.2,-99.9,30.06,SSW,202,2.2,6.5,34,0.00,,CLR,10.62,VWS V14.01,2013-03-07 10:19:00,
2013-03-07 03:29:00,50.4,-99.9,30.06,SSE,158,2.7,4.3,34,0.00,,CLR,10.62,VWS V14.01,2013-03-07 10:29:00,
2013-03-07 03:49:00,50.0,-99.9,30.06,ENE,68,1.3,5.4,35,0.00,,CLR,10.62,VWS V14.01,2013-03-07 10:49:00,
2013-03-07 03:59:00,50.2,-99.9,30.06,SSE,158,1.1,5.4,35,0.00,,CLR,10.62,VWS V14.01,2013-03-07 10:59:00,
2013-03-07 04:09:00,49.1,-99.9,30.06,WSW,248,3.4,3.6,36,0.00,,CLR,10.62,VWS V14.01,2013-03-07 11:09:00,
2013-03-07 04:19:00,48.0,-99.9,30.06,SSW,202,3.8,3.8,36,0.00,,CLR,10.62,VWS V14.01,2013-03-07 11:19:00,
2013-03-07 04:29:00,48.0,-99.9,30.06,ESE,112,3.1,4.9,38,0.00,,CLR,10.62,VWS V14.01,2013-03-07 11:29:00,
2013-03-07 04:39:00,48.4,-99.9,30.06,WNW,292,1.3,6.3,38,0.00,,CLR,10.62,VWS V14.01,2013-03-07 11:39:00,
2013-03-07 04:49:00,48.4,-99.9,30.06,NNW,338,2.0,2.7,38,0.00,,CLR,10.62,VWS V14.01,2013-03-07 11:49:00,
2013-03-07 04:59:00,47.5,-99.9,30.06,NNW,338,0.0,4.7,39,0.00,,CLR,10.62,VWS V14.01,2013-03-07 11:59:00,
2013-03-07 05:09:00,47.3,-99.9,30.06,ENE,68,0.0,2.7,37,0.00,,CLR,10.62,VWS V14.01,2013-03-07 12:09:00,
2013-03-07 05:19:00,46.2,-99.9,30.06,West,270,0.9,3.4,39,0.00,,CLR,10.62,VWS V14.01,2013-03-07 12:19:00,
2013-03-07 05:29:00,45.3,-99.9,30.06,SSE,158,3.4,3.4,40,0.00,,CLR,10.62,VWS V14.01,2013-03-07 12:29:00,
2013-03-07 05:39:00,46.2,-99.9,30.06,NE,45,2.9,4.7,40,0.00,,CLR,10.62,VWS V14.01,2013-03-07 12:39:00,
2013-03-07 05:49:00,46.6,-99.9,30.06,SSW,202,2.0,5.6,40,0.00,,CLR,10.62,VWS V14.01,2013-03-07 12:49:00,
2013-03-07 05:59:00,46.6,-99.9,30.09,WSW,248,2.9,6.0,40,0.00,,CLR,10.62,VWS V14.01,2013-03-07 12:59:00,
2013-03-07 06:09:00,46.8,-99.9,30.09,ESE,112,4.0,4.0,40,0.00,,FEW180,10.62,VWS V14.01,2013-03-07 13:09:00,
2013-03-07 06:19:00,46.8,-99.9,30.09,South,180,1.1,4.0,40,0.00,,FEW180,10.62,VWS V14.01,2013-03-07 13:19:00,
2013-03-07 06:30:00,46.0,-99.9,30.09,SSW,202,1.1,5.4,40,0.00,,FEW180,10.62,VWS V14.01,2013-03-07 13:30:00,
2013-03-07 06:40:00,45.3,-99.9,30.09,ENE,68,2.5,3.6,40,0.00,,FEW180,10.62,VWS V14.01,2013-03-07 13:40:00,
2013-03-07 06:49:00,43.9,-99.9,30.09,SSW,202,1.3,4.0,41,0.00,,FEW180,10.62,VWS V14.01,2013-03-07 13:49:00,
2013-03-07 06:59:00,44.1,-99.9,30.06,ENE,68,0.0,6.7,41,0.00,,FEW180,10.62,VWS V14.01,2013-03-07 13:59:00,
2013-03-07 07:09:00,45.5,-99.9,30.09,SSW,202,1.6,3.1,41,0.00,,FEW180,10.62,VWS V14.01,2013-03-07 14:09:00,
2013-03-07 07:19:00,47.7,-99.9,30.09,NE,45,4.9,5.4,40,0.00,,FEW180,10.62,VWS V14.01,2013-03-07 14:19:00,
2013-03-07 07:30:00,49.6,-99.9,30.09,SSW,202,2.7,6.5,40,0.00,,FEW180,10.62,VWS V14.01,2013-03-07 14:30:00,
2013-03-07 07:39:00,52.0,-99.9,30.09,ENE,68,0.0,2.7,38,0.00,,FEW180,10.62,VWS V14.01,2013-03-07 14:39:00,
2013-03-07 07:49:00,54.5,-99.9,30.09,ENE,68,2.5,2.9,37,0.00,,FEW180,10.62,VWS V14.01,2013-03-07 14:49:00,
2013-03-07 07:59:00,56.1,-99.9,30.09,ENE,68,2.5,3.1,35,0.00,,FEW180,10.62,VWS V14.01,2013-03-07 14:59:00,
2013-03-07 08:09:00,57.4,-99.9,30.09,NNW,338,1.1,3.4,33,0.00,,FEW180,10.62,VWS V14.01,2013-03-07 15:09:00,
2013-03-07 08:19:00,57.7,-99.9,30.09,NE,45,3.6,5.6,31,0.00,,FEW180,10.62,VWS V14.01,2013-03-07 15:19:00,
2013-03-07 08:29:00,58.8,-99.9,30.09,NW,315,2.2,3.6,30,0.00,,FEW180,10.62,VWS V14.01,2013-03-07 15:29:00,
2013-03-07 08:39:00,60.3,-99.9,30.09,NE,45,5.6,5.6,28,0.00,,FEW180,10.62,VWS V14.01,2013-03-07 15:39:00,
2013-03-07 08:49:00,60.6,-99.9,30.09,SE,135,4.0,5.6,28,0.00,,FEW180,10.62,VWS V14.01,2013-03-07 15:49:00,
2013-03-07 08:59:00,61.5,-99.9,30.09,WSW,248,2.9,4.0,27,0.00,,FEW180,10.62,VWS V14.01,2013-03-07 15:59:00,
2013-03-07 09:09:00,63.5,-99.9,30.09,South,180,1.6,2.9,25,0.00,,CLR,10.62,VWS V14.01,2013-03-07 16:09:00,
2013-03-07 09:19:00,65.1,-99.9,30.12,NNE,22,0.0,3.8,22,0.00,,CLR,10.62,VWS V14.01,2013-03-07 16:19:00,
2013-03-07 09:29:00,66.2,-99.9,30.12,SSE,158,7.8,10.7,12,0.00,,CLR,10.62,VWS V14.01,2013-03-07 16:29:00,
2013-03-07 09:39:00,65.3,-99.9,30.09,ENE,68,4.9,13.4,17,0.00,,CLR,10.62,VWS V14.01,2013-03-07 16:39:00,
2013-03-07 09:49:00,65.8,-99.9,30.09,ENE,68,12.3,13.6,17,0.00,,CLR,10.62,VWS V14.01,2013-03-07 16:49:00,
2013-03-07 09:59:00,67.1,-99.9,30.09,ESE,112,6.9,13.0,14,0.00,,CLR,10.62,VWS V14.01,2013-03-07 16:59:00,
2013-03-07 10:09:00,67.5,-99.9,30.09,ENE,68,4.3,11.0,6,0.00,,CLR,10.62,VWS V14.01,2013-03-07 17:09:00,
2013-03-07 10:19:00,67.8,-99.9,30.09,SSE,158,10.5,10.5,6,0.00,,CLR,10.62,VWS V14.01,2013-03-07 17:19:00,
2013-03-07 10:39:00,68.0,-99.9,30.09,SSW,202,4.9,14.5,6,0.00,,CLR,10.62,VWS V14.01,2013-03-07 17:39:00,
2013-03-07 10:49:00,68.0,-99.9,30.09,SSW,202,6.0,9.8,6,0.00,,CLR,10.62,VWS V14.01,2013-03-07 17:49:00,
2013-03-07 10:59:00,68.0,-99.9,30.09,SSW,202,6.9,14.3,6,0.00,,CLR,10.62,VWS V14.01,2013-03-07 17:59:00,
2013-03-07 11:10:00,68.4,-99.9,30.09,SSW,202,4.9,10.7,6,0.00,,FEW260,10.62,VWS V14.01,2013-03-07 18:10:00,
2013-03-07 11:19:00,69.4,-99.9,30.09,SSW,202,7.4,16.1,6,0.00,,FEW260,10.62,VWS V14.01,2013-03-07 18:19:00,
2013-03-07 11:29:00,68.7,-99.9,30.09,SSW,202,10.7,10.7,6,0.00,,FEW260,10.62,VWS V14.01,2013-03-07 18:29:00,
2013-03-07 11:39:00,69.8,-99.9,30.09,SSE,158,7.6,13.2,5,0.00,,FEW260,10.62,VWS V14.01,2013-03-07 18:39:00,
2013-03-07 11:49:00,70.0,-99.9,30.09,SSW,202,3.8,10.3,5,0.00,,FEW260,10.62,VWS V14.01,2013-03-07 18:49:00,
2013-03-07 11:59:00,70.5,-99.9,30.09,SW,225,8.7,12.8,5,0.00,,FEW260,10.62,VWS V14.01,2013-03-07 18:59:00,
2013-03-07 12:09:00,70.0,-99.9,30.09,SW,225,3.6,15.4,5,0.00,,FEW260,10.62,VWS V14.01,2013-03-07 19:09:00,
2013-03-07 12:19:00,69.6,-99.9,30.09,South,180,10.1,12.3,6,0.00,,FEW260,10.62,VWS V14.01,2013-03-07 19:19:00,
2013-03-07 12:39:00,70.5,-99.9,30.09,SSW,202,13.4,14.3,5,0.00,,FEW260,10.62,VWS V14.01,2013-03-07 19:39:00,
2013-03-07 12:49:00,69.8,-99.9,30.09,SSW,202,9.4,16.8,5,0.00,,FEW260,10.62,VWS V14.01,2013-03-07 19:49:00,
2013-03-07 13:00:00,70.0,-99.9,30.09,SW,225,10.5,19.0,5,0.00,,FEW260,10.62,VWS V14.01,2013-03-07 20:00:00,
2013-03-07 13:19:00,70.2,-99.9,30.12,SSW,202,4.3,15.4,5,0.00,,FEW260,10.62,VWS V14.01,2013-03-07 20:19:00,
2013-03-07 13:39:00,70.5,-99.9,30.09,SSE,158,23.3,23.3,5,0.00,,FEW260,10.62,VWS V14.01,2013-03-07 20:39:00,
2013-03-07 13:49:00,70.9,-99.9,30.09,South,180,10.7,23.3,5,0.00,,FEW260,10.62,VWS V14.01,2013-03-07 20:49:00,
2013-03-07 13:59:00,70.5,-99.9,30.09,WSW,248,5.8,20.4,5,0.00,,FEW260,10.62,VWS V14.01,2013-03-07 20:59:00,
2013-03-07 14:09:00,70.2,-99.9,30.06,SSE,158,12.8,12.8,5,0.00,,SCT260,10.62,VWS V14.01,2013-03-07 21:09:00,
2013-03-07 14:20:00,70.7,-99.9,30.06,South,180,12.8,25.1,5,0.00,,SCT260,10.62,VWS V14.01,2013-03-07 21:20:00,
2013-03-07 14:29:00,70.5,-99.9,30.06,SSE,158,11.9,21.0,5,0.00,,SCT260,10.62,VWS V14.01,2013-03-07 21:29:00,
2013-03-07 14:39:00,70.7,-99.9,30.06,SSW,202,7.4,17.5,5,0.00,,SCT260,10.62,VWS V14.01,2013-03-07 21:39:00,
2013-03-07 14:49:00,71.2,-99.9,30.06,South,180,14.1,14.1,5,0.00,,SCT260,10.62,VWS V14.01,2013-03-07 21:49:00,
2013-03-07 15:00:00,70.2,-99.9,30.06,South,180,12.8,22.6,5,0.00,,SCT260,10.62,VWS V14.01,2013-03-07 22:00:00,
2013-03-07 15:19:00,71.1,-99.9,30.06,SSE,158,12.1,15.4,5,0.00,,BKN260,10.62,VWS V14.01,2013-03-07 22:19:00,
2013-03-07 15:29:00,70.2,-99.9,30.06,SSW,202,8.5,17.7,5,0.00,,BKN260,10.62,VWS V14.01,2013-03-07 22:29:00,
2013-03-07 15:39:00,70.9,-99.9,30.06,SW,225,5.8,13.0,5,0.00,,BKN260,10.62,VWS V14.01,2013-03-07 22:39:00,
2013-03-07 15:59:00,68.9,-99.9,30.06,SSW,202,7.6,15.4,6,0.00,,BKN260,10.62,VWS V14.01,2013-03-07 22:59:00,
2013-03-07 16:09:00,68.9,-99.9,30.06,SSE,158,12.3,15.4,6,0.00,,BKN260,10.62,VWS V14.01,2013-03-07 23:09:00,
2013-03-07 16:19:00,68.4,-99.9,30.06,SSE,158,7.8,19.7,6,0.00,,BKN260,10.62,VWS V14.01,2013-03-07 23:19:00,
2013-03-07 16:29:00,68.4,-99.9,30.06,South,180,6.5,17.2,6,0.00,,BKN260,10.62,VWS V14.01,2013-03-07 23:29:00,
2013-03-07 16:40:00,67.6,-99.9,30.06,SSW,202,12.5,19.9,6,0.00,,BKN260,10.62,VWS V14.01,2013-03-07 23:40:00,
2013-03-07 16:50:00,67.3,-99.9,30.06,SSE,158,5.8,12.5,6,0.00,,BKN260,10.62,VWS V14.01,2013-03-07 23:50:00,
2013-03-07 16:59:00,66.7,-99.9,30.06,SSW,202,13.0,13.0,6,0.00,,BKN260,10.62,VWS V14.01,2013-03-07 23:59:00,
2013-03-07 17:09:00,66.2,-99.9,30.06,SSE,158,11.0,13.0,6,0.00,,BKN260,10.62,VWS V14.01,2013-03-08 00:09:00,
2013-03-07 17:19:00,65.8,-99.9,30.06,South,180,6.3,13.0,6,0.00,,BKN260,10.62,VWS V14.01,2013-03-08 00:19:00,
2013-03-07 17:29:00,65.5,-99.9,30.06,WSW,248,6.5,7.8,6,0.00,,BKN260,10.62,VWS V14.01,2013-03-08 00:29:00,
2013-03-07 17:39:00,65.1,-99.9,30.06,SSW,202,1.6,8.1,6,0.00,,BKN260,10.62,VWS V14.01,2013-03-08 00:39:00,
2013-03-07 17:49:00,64.8,-99.9,30.06,SSE,158,5.6,6.3,6,0.00,,BKN260,10.62,VWS V14.01,2013-03-08 00:49:00,
2013-03-07 17:59:00,64.2,-99.9,30.06,SSE,158,7.4,8.7,7,0.00,,BKN260,10.62,VWS V14.01,2013-03-08 00:59:00,
2013-03-07 18:09:00,63.9,-99.9,30.09,SSW,202,4.3,11.9,7,0.00,,BKN260,10.62,VWS V14.01,2013-03-08 01:09:00,
2013-03-07 18:19:00,63.0,-99.9,30.09,SSE,158,6.5,6.5,7,0.00,,BKN260,10.62,VWS V14.01,2013-03-08 01:19:00,
2013-03-07 18:29:00,62.2,-99.9,30.09,SSW,202,9.0,9.0,7,0.00,,BKN260,10.62,VWS V14.01,2013-03-08 01:29:00,
2013-03-07 18:39:00,62.2,-99.9,30.09,SSE,158,6.0,10.3,7,0.00,,BKN260,10.62,VWS V14.01,2013-03-08 01:39:00,
2013-03-07 18:49:00,62.6,-99.9,30.09,South,180,5.6,7.4,7,0.00,,BKN260,10.62,VWS V14.01,2013-03-08 01:49:00,
2013-03-07 18:59:00,61.9,-99.9,30.09,SSE,158,2.7,5.8,7,0.00,,BKN260,10.62,VWS V14.01,2013-03-08 01:59:00,
2013-03-07 19:09:00,62.2,-99.9,30.09,SSE,158,2.0,13.0,7,0.00,,BKN260,10.62,VWS V14.01,2013-03-08 02:09:00,
2013-03-07 19:20:00,61.3,-99.9,30.09,South,180,4.3,6.9,7,0.00,,BKN260,10.62,VWS V14.01,2013-03-08 02:20:00,
2013-03-07 19:29:00,60.8,-99.9,30.09,SW,225,10.5,12.3,7,0.00,,BKN260,10.62,VWS V14.01,2013-03-08 02:29:00,
2013-03-07 19:39:00,60.4,-99.9,30.12,SSE,158,4.0,10.5,8,0.00,,BKN260,10.62,VWS V14.01,2013-03-08 02:39:00,
2013-03-07 19:49:00,61.0,-99.9,30.12,SSW,202,8.5,8.5,7,0.00,,BKN260,10.62,VWS V14.01,2013-03-08 02:49:00,
2013-03-07 19:59:00,61.0,-99.9,30.09,SSE,158,7.8,10.7,7,0.00,,BKN260,10.62,VWS V14.01,2013-03-08 02:59:00,
2013-03-07 20:09:00,61.2,-99.9,30.09,South,180,6.3,14.3,7,0.00,,BKN260,10.62,VWS V14.01,2013-03-08 03:09:00,
2013-03-07 20:19:00,60.4,-99.9,30.09,SSW,202,8.7,12.3,8,0.00,,BKN260,10.62,VWS V14.01,2013-03-08 03:19:00,
2013-03-07 20:29:00,59.5,-99.9,30.09,SSW,202,6.0,8.7,8,0.00,,BKN260,10.62,VWS V14.01,2013-03-08 03:29:00,
2013-03-07 20:39:00,60.1,-99.9,30.09,SSE,158,3.8,6.0,8,0.00,,BKN260,10.62,VWS V14.01,2013-03-08 03:39:00,
2013-03-07 20:59:00,57.9,-99.9,30.09,SSE,158,4.7,4.7,8,0.00,,BKN260,10.62,VWS V14.01,2013-03-08 03:59:00,
2013-03-07 21:09:00,59.4,-99.9,30.06,SSE,158,10.1,12.8,8,0.00,,SCT260,10.62,VWS V14.01,2013-03-08 04:09:00,
2013-03-07 21:19:00,59.7,-99.9,30.06,SSW,202,4.0,12.1,8,0.00,,SCT260,10.62,VWS V14.01,2013-03-08 04:19:00,
2013-03-07 21:29:00,59.4,-99.9,30.09,SSE,158,4.3,10.3,8,0.00,,SCT260,10.62,VWS V14.01,2013-03-08 04:29:00,
2013-03-07 21:39:00,59.4,-99.9,30.09,ESE,112,3.8,10.3,8,0.00,,SCT260,10.62,VWS V14.01,2013-03-08 04:39:00,
2013-03-07 21:49:00,58.5,-99.9,30.09,SSE,158,2.0,5.6,8,0.00,,SCT260,10.62,VWS V14.01,2013-03-08 04:49:00,
2013-03-07 21:59:00,57.7,-99.9,30.09,SSE,158,5.8,9.0,8,0.00,,SCT260,10.62,VWS V14.01,2013-03-08 04:59:00,
2013-03-07 22:10:00,57.9,-99.9,30.09,South,180,3.1,11.4,8,0.00,,SCT260,10.62,VWS V14.01,2013-03-08 05:10:00,
2013-03-07 22:19:00,57.6,-99.9,30.06,SSW,202,3.1,7.4,8,0.00,,SCT260,10.62,VWS V14.01,2013-03-08 05:19:00,
2013-03-07 22:29:00,57.7,-99.9,30.06,SSE,158,2.7,6.5,8,0.00,,SCT260,10.62,VWS V14.01,2013-03-08 05:29:00,
2013-03-07 22:39:00,57.9,-99.9,30.09,WSW,248,4.7,7.8,8,0.00,,SCT260,10.62,VWS V14.01,2013-03-08 05:39:00,
2013-03-07 22:49:00,58.5,-99.9,30.09,SSE,158,3.1,7.6,8,0.00,,SCT260,10.62,VWS V14.01,2013-03-08 05:49:00,
2013-03-07 22:59:00,58.5,-99.9,30.09,SSW,202,6.0,7.6,8,0.00,,SCT260,10.62,VWS V14.01,2013-03-08 05:59:00,
2013-03-07 23:09:00,58.3,-99.9,30.09,SSW,202,3.6,7.8,8,0.00,,FEW240,10.62,VWS V14.01,2013-03-08 06:09:00,
2013-03-07 23:19:00,57.7,-99.9,30.09,SSE,158,5.4,6.5,8,0.00,,FEW240,10.62,VWS V14.01,2013-03-08 06:19:00,
2013-03-07 23:29:00,56.1,-99.9,30.09,ESE,112,0.9,6.3,8,0.00,,FEW240,10.62,VWS V14.01,2013-03-08 06:29:00,
2013-03-07 23:39:00,54.0,-99.9,30.09,SE,135,4.0,5.4,9,0.00,,FEW240,10.62,VWS V14.01,2013-03-08 06:39:00,
2013-03-07 23:49:00,52.7,-99.9,30.09,NE,45,6.3,6.3,13,0.00,,FEW240,10.62,VWS V14.01,2013-03-08 06:49:00,
2013-03-07 23:59:00,52.0,-99.9,30.09,ENE,68,3.6,6.3,20,0.00,,FEW240,0.00,VWS V14.01,2013-03-08 06:59:00,